Time;durP1;ratioP1;P1;durP2;ratioP2;P2;SDS_P1;SDS_P2;PMS_P1;PMS_P2;Temp;Humidity;BMP_temperature;BMP_pressure;BME280_temperature;BME280_humidity;BME280_pressure;Samples;Min_cycle;Max_cycle;Signal;HPM_P1;HPM_P2
2023/05/11 00:00:51;;;;;;;11.00;10.00;;;17.50;99.90;;;;;;5112833;27;20460;-75
2023/05/11 00:03:18;;;;;;;12.23;11.00;;;17.40;99.90;;;;;;5112953;27;20468;-76
2023/05/11 00:05:48;;;;;;;12.57;11.33;;;17.40;99.90;;;;;;5112419;27;21035;-76
2023/05/11 00:08:18;;;;;;;10.90;10.00;;;17.40;99.90;;;;;;5113086;27;20460;-76
2023/05/11 00:10:48;;;;;;;10.33;9.53;;;17.30;99.90;;;;;;5111961;27;20475;-75
2023/05/11 00:13:16;;;;;;;10.50;9.50;;;17.40;99.90;;;;;;5113154;27;20475;-75
2023/05/11 00:15:43;;;;;;;12.03;10.83;;;17.30;99.90;;;;;;5112885;27;20559;-75
2023/05/11 00:18:19;;;;;;;10.67;9.67;;;17.30;99.90;;;;;;5112281;27;20965;-76
2023/05/11 00:20:46;;;;;;;11.03;10.13;;;17.20;99.90;;;;;;5112413;27;20464;-74
2023/05/11 00:23:13;;;;;;;10.00;9.07;;;17.20;99.90;;;;;;5113135;27;20525;-76
2023/05/11 00:25:40;;;;;;;10.63;9.73;;;17.20;99.90;;;;;;5112880;27;20472;-76
2023/05/11 00:28:09;;;;;;;10.03;9.17;;;17.20;99.90;;;;;;5112628;27;20460;-76
2023/05/11 00:30:36;;;;;;;9.43;8.70;;;17.20;99.90;;;;;;5112918;27;21017;-77
2023/05/11 00:33:05;;;;;;;8.90;8.10;;;17.20;99.90;;;;;;5124195;27;20885;-76
2023/05/11 00:35:32;;;;;;;8.60;7.80;;;17.20;99.90;;;;;;5128757;27;20493;-76
2023/05/11 00:37:59;;;;;;;9.63;8.83;;;17.20;99.90;;;;;;5118621;27;20464;-77
2023/05/11 00:40:26;;;;;;;9.43;8.53;;;17.10;99.90;;;;;;5127872;27;20471;-77
2023/05/11 00:42:53;;;;;;;9.33;8.53;;;17.10;99.90;;;;;;5131468;27;20460;-77
2023/05/11 00:45:22;;;;;;;10.37;9.37;;;17.10;99.90;;;;;;5127642;27;20468;-75
2023/05/11 00:47:49;;;;;;;10.20;9.30;;;17.10;99.90;;;;;;5123937;27;20467;-77
2023/05/11 00:50:17;;;;;;;10.57;9.47;;;17.00;99.90;;;;;;5123057;27;20457;-76
2023/05/11 00:52:45;;;;;;;11.57;10.40;;;17.00;99.90;;;;;;5120760;27;20505;-76
2023/05/11 00:55:14;;;;;;;10.43;9.50;;;17.00;99.90;;;;;;5116203;27;20555;-76
2023/05/11 00:57:41;;;;;;;10.30;9.30;;;17.00;99.90;;;;;;5116297;27;20464;-76
2023/05/11 01:00:10;;;;;;;11.23;10.23;;;17.00;99.90;;;;;;5115695;27;20637;-76
2023/05/11 01:02:39;;;;;;;11.33;10.33;;;17.00;99.90;;;;;;5116565;27;20492;-76
2023/05/11 01:05:06;;;;;;;10.00;9.10;;;17.00;99.90;;;;;;5115650;27;20879;-76
2023/05/11 01:07:39;;;;;;;11.30;10.10;;;17.00;99.90;;;;;;5116182;27;20797;-76
2023/05/11 01:10:15;;;;;;;11.03;9.97;;;16.90;99.90;;;;;;5115702;27;20468;-76
2023/05/11 01:12:57;;;;;;;9.67;8.87;;;16.90;99.90;;;;;;5119799;27;20535;-75
2023/05/11 01:15:35;;;;;;;13.80;12.10;;;16.90;99.90;;;;;;5130265;27;20460;-75
2023/05/11 01:18:14;;;;;;;13.00;11.80;;;16.90;99.90;;;;;;5115861;27;20787;-76
2023/05/11 01:20:46;;;;;;;11.30;10.33;;;16.90;99.90;;;;;;5116304;27;20494;-76
2023/05/11 01:23:41;;;;;;;13.73;12.43;;;16.80;99.90;;;;;;5115242;27;21027;-76
2023/05/11 01:26:33;;;;;;;12.30;11.20;;;16.80;99.90;;;;;;5115213;27;20977;-75
2023/05/11 01:29:35;;;;;;;12.20;11.10;;;16.80;99.90;;;;;;5115588;27;20479;-75
2023/05/11 01:32:10;;;;;;;14.90;13.30;;;16.80;99.90;;;;;;5115539;27;20538;-77
2023/05/11 01:34:41;;;;;;;13.23;11.83;;;16.70;99.90;;;;;;5116189;27;20464;-75
2023/05/11 01:37:14;;;;;;;14.00;12.77;;;16.70;99.90;;;;;;5115213;27;20471;-75
2023/05/11 01:39:48;;;;;;;12.87;11.67;;;16.60;99.90;;;;;;5115898;27;20456;-76
2023/05/11 01:42:16;;;;;;;13.80;12.53;;;16.60;99.90;;;;;;5114898;27;20902;-76
2023/05/11 01:44:47;;;;;;;14.13;12.70;;;16.60;99.90;;;;;;5115545;27;20529;-75
2023/05/11 01:47:17;;;;;;;12.80;11.60;;;16.60;99.90;;;;;;5113918;27;20495;-76
2023/05/11 01:49:46;;;;;;;14.03;12.50;;;16.60;99.90;;;;;;5115600;27;20471;-75
2023/05/11 01:52:14;;;;;;;13.93;12.53;;;16.50;99.90;;;;;;5114723;27;20813;-76
2023/05/11 01:54:44;;;;;;;16.87;14.10;;;16.50;99.90;;;;;;5115431;27;20464;-75
2023/05/11 01:57:12;;;;;;;12.20;11.10;;;16.40;99.90;;;;;;5114618;27;20464;-75
2023/05/11 01:59:41;;;;;;;15.20;13.73;;;16.40;99.90;;;;;;5115436;27;20564;-75
2023/05/11 02:02:14;;;;;;;13.23;12.03;;;16.40;99.90;;;;;;5114783;27;20476;-76
2023/05/11 02:04:43;;;;;;;14.07;12.87;;;16.30;99.90;;;;;;5115347;27;20942;-75
2023/05/11 02:07:13;;;;;;;15.00;13.70;;;16.30;99.90;;;;;;5114863;27;20492;-75
2023/05/11 02:09:42;;;;;;;15.40;13.90;;;16.30;99.90;;;;;;5115376;27;20957;-76
2023/05/11 02:12:10;;;;;;;14.77;13.20;;;16.30;99.90;;;;;;5114817;27;20476;-76
2023/05/11 02:14:39;;;;;;;15.50;14.10;;;16.30;99.90;;;;;;5114899;27;20460;-76
2023/05/11 02:17:07;;;;;;;15.77;14.43;;;16.30;99.90;;;;;;5113531;27;20473;-76
2023/05/11 02:19:36;;;;;;;14.00;12.70;;;16.30;99.90;;;;;;5114929;27;20456;-76
2023/05/11 02:22:07;;;;;;;13.40;12.23;;;16.20;99.90;;;;;;5115199;27;20831;-76
2023/05/11 02:24:35;;;;;;;13.23;12.03;;;16.20;99.90;;;;;;5114707;27;20510;-76
2023/05/11 02:27:03;;;;;;;13.53;12.10;;;16.20;99.90;;;;;;5115009;27;20534;-76
2023/05/11 02:29:33;;;;;;;12.70;11.60;;;16.20;99.90;;;;;;5113813;27;21416;-76
2023/05/11 02:32:06;;;;;;;15.23;13.83;;;16.20;99.90;;;;;;5115198;27;20474;-75
2023/05/11 02:34:39;;;;;;;15.90;14.30;;;16.10;99.90;;;;;;5113954;27;21093;-75
2023/05/11 02:37:11;;;;;;;14.43;13.03;;;16.10;99.90;;;;;;5114714;27;20472;-75
2023/05/11 02:39:39;;;;;;;14.47;13.23;;;16.10;99.90;;;;;;5114490;27;20456;-75
2023/05/11 02:42:12;;;;;;;13.17;11.97;;;16.10;99.90;;;;;;5114250;27;20498;-75
2023/05/11 02:44:44;;;;;;;13.90;12.70;;;16.00;99.90;;;;;;5113650;27;20525;-75
2023/05/11 02:47:14;;;;;;;15.20;13.20;;;16.00;99.90;;;;;;5114481;27;20496;-75
2023/05/11 02:49:44;;;;;;;13.43;12.30;;;16.00;99.90;;;;;;5113196;27;20453;-75
2023/05/11 02:52:15;;;;;;;14.43;13.33;;;16.00;99.90;;;;;;5114248;27;20488;-76
2023/05/11 02:54:45;;;;;;;13.73;12.43;;;15.90;99.90;;;;;;5113738;27;20461;-74
2023/05/11 02:57:13;;;;;;;13.70;12.40;;;15.90;99.90;;;;;;5114081;27;20464;-76
2023/05/11 02:59:40;;;;;;;14.13;12.67;;;15.90;99.90;;;;;;5113843;27;20472;-74
2023/05/11 03:02:08;;;;;;;13.83;12.63;;;15.90;99.90;;;;;;5114094;27;20460;-75
2023/05/11 03:04:35;;;;;;;14.17;12.97;;;15.90;99.90;;;;;;5113483;27;20493;-76
2023/05/11 03:07:02;;;;;;;13.50;12.40;;;15.90;99.90;;;;;;5114032;27;20534;-75
2023/05/11 03:09:30;;;;;;;14.03;12.83;;;15.90;99.90;;;;;;5112820;27;20465;-75
2023/05/11 03:12:02;;;;;;;12.93;11.73;;;15.80;99.90;;;;;;5113390;27;20608;-75
2023/05/11 03:14:29;;;;;;;12.67;11.37;;;15.80;99.90;;;;;;5113130;27;20495;-76
2023/05/11 03:16:57;;;;;;;14.30;13.10;;;15.80;99.90;;;;;;5113736;27;20553;-75
2023/05/11 03:19:24;;;;;;;12.37;11.37;;;15.80;99.90;;;;;;5111786;27;20457;-75
2023/05/11 03:21:52;;;;;;;12.27;11.17;;;15.80;99.90;;;;;;5113728;27;20457;-76
2023/05/11 03:24:20;;;;;;;13.00;11.80;;;15.80;99.90;;;;;;5113358;27;20991;-77
2023/05/11 03:26:50;;;;;;;13.90;12.70;;;15.80;99.90;;;;;;5113075;27;20772;-75
2023/05/11 03:29:17;;;;;;;10.90;10.00;;;15.80;99.90;;;;;;5113677;27;20532;-76
2023/05/11 03:31:44;;;;;;;11.87;10.83;;;15.70;99.90;;;;;;5112886;27;20475;-76
2023/05/11 03:34:17;;;;;;;12.03;10.93;;;15.70;99.90;;;;;;5113326;27;20492;-76
2023/05/11 03:36:46;;;;;;;11.73;10.63;;;15.70;99.90;;;;;;5112494;27;20468;-76
2023/05/11 03:39:15;;;;;;;11.83;10.83;;;15.70;99.90;;;;;;5113279;27;20468;-75
2023/05/11 03:41:44;;;;;;;9.93;9.07;;;15.70;99.90;;;;;;5112817;27;20962;-75
2023/05/11 03:44:14;;;;;;;10.17;9.37;;;15.70;99.90;;;;;;5112914;27;20500;-75
2023/05/11 03:46:44;;;;;;;10.63;9.63;;;15.70;99.90;;;;;;5103452;27;20485;-75
2023/05/11 03:49:12;;;;;;;11.40;10.50;;;15.70;99.90;;;;;;5113571;27;20465;-75
2023/05/11 03:51:40;;;;;;;11.57;10.47;;;15.70;99.90;;;;;;5113090;27;20484;-76
2023/05/11 03:54:07;;;;;;;13.87;10.03;;;15.70;99.90;;;;;;5113289;27;20587;-75
2023/05/11 03:56:36;;;;;;;10.87;9.87;;;15.70;99.90;;;;;;5112891;27;20488;-75
2023/05/11 03:59:03;;;;;;;10.37;9.57;;;15.70;99.90;;;;;;5113204;27;20488;-76
2023/05/11 04:01:32;;;;;;;10.53;9.53;;;15.70;99.90;;;;;;5112650;27;20479;-76
2023/05/11 04:03:59;;;;;;;10.10;9.20;;;15.70;99.90;;;;;;5113053;27;20464;-75
2023/05/11 04:06:26;;;;;;;12.13;10.93;;;15.60;99.90;;;;;;5113046;27;20488;-76
2023/05/11 04:08:52;;;;;;;11.17;10.20;;;15.60;99.90;;;;;;5112355;27;20562;-76
2023/05/11 04:11:20;;;;;;;10.63;9.73;;;15.60;99.90;;;;;;5112930;27;20499;-76
2023/05/11 04:13:51;;;;;;;9.10;8.27;;;15.60;99.90;;;;;;5112394;27;20473;-76
2023/05/11 04:16:18;;;;;;;10.40;9.50;;;15.60;99.90;;;;;;5112827;27;20472;-77
2023/05/11 04:18:47;;;;;;;10.53;9.63;;;15.60;99.90;;;;;;5112762;27;20521;-75
2023/05/11 04:21:14;;;;;;;12.33;11.23;;;15.50;99.90;;;;;;5112918;27;20536;-75
2023/05/11 04:23:41;;;;;;;10.50;9.37;;;15.50;99.90;;;;;;5110806;27;20461;-76
2023/05/11 04:26:08;;;;;;;8.63;7.93;;;15.50;99.90;;;;;;5112882;27;20945;-75
2023/05/11 04:28:34;;;;;;;11.40;10.30;;;15.60;99.90;;;;;;5112560;27;20499;-77
2023/05/11 04:31:01;;;;;;;11.27;9.00;;;15.60;99.90;;;;;;5113014;27;21008;-76
2023/05/11 04:33:28;;;;;;;11.60;10.50;;;15.60;99.90;;;;;;5112879;27;20501;-76
2023/05/11 04:35:57;;;;;;;9.60;8.80;;;15.60;99.90;;;;;;5111993;27;20542;-77
2023/05/11 04:38:24;;;;;;;10.73;9.83;;;15.60;99.90;;;;;;5112919;27;20786;-76
2023/05/11 04:40:51;;;;;;;9.67;8.73;;;15.70;99.90;;;;;;5112127;27;20938;-76
2023/05/11 04:43:19;;;;;;;8.73;8.13;;;15.70;99.90;;;;;;5112550;27;20525;-76
2023/05/11 04:45:48;;;;;;;8.80;8.10;;;15.70;99.90;;;;;;5112219;27;20472;-76
2023/05/11 04:48:15;;;;;;;9.07;8.27;;;15.70;99.90;;;;;;5112464;27;20968;-76
2023/05/11 04:50:42;;;;;;;12.60;8.37;;;15.70;99.90;;;;;;5112187;27;20487;-76
2023/05/11 04:53:11;;;;;;;9.57;8.67;;;15.70;99.90;;;;;;5112414;27;20782;-76
2023/05/11 04:55:38;;;;;;;8.97;7.50;;;15.70;99.90;;;;;;5111881;27;20541;-76
2023/05/11 04:58:05;;;;;;;8.60;7.80;;;15.80;99.90;;;;;;5112908;27;20468;-75
2023/05/11 05:00:38;;;;;;;8.47;7.57;;;15.70;99.90;;;;;;5112355;27;20499;-74
2023/05/11 05:03:07;;;;;;;9.73;8.93;;;15.80;99.90;;;;;;5101274;27;20958;-76
2023/05/11 05:05:34;;;;;;;9.67;8.33;;;15.90;99.90;;;;;;5114112;27;20468;-75
2023/05/11 05:08:01;;;;;;;10.70;7.90;;;15.90;99.90;;;;;;5112639;27;20482;-76
2023/05/11 05:10:30;;;;;;;7.90;7.27;;;15.90;99.90;;;;;;5112323;27;20551;-75
2023/05/11 05:12:57;;;;;;;6.57;6.07;;;16.00;99.90;;;;;;5112041;27;20829;-76
2023/05/11 05:15:24;;;;;;;8.30;7.67;;;16.10;99.90;;;;;;5112173;27;20498;-76
2023/05/11 05:17:51;;;;;;;7.60;6.90;;;16.10;99.90;;;;;;5112238;27;20468;-77
2023/05/11 05:20:18;;;;;;;7.70;7.00;;;16.20;99.90;;;;;;5112856;27;20521;-76
2023/05/11 05:22:45;;;;;;;8.27;7.60;;;16.20;99.90;;;;;;5115383;27;20464;-76
2023/05/11 05:25:12;;;;;;;7.37;6.77;;;16.30;99.90;;;;;;5115277;27;20861;-77
2023/05/11 05:27:41;;;;;;;7.40;6.80;;;16.30;99.90;;;;;;5115884;27;20464;-77
2023/05/11 05:30:08;;;;;;;7.10;6.30;;;16.30;99.90;;;;;;5115312;27;20468;-75
2023/05/11 05:32:37;;;;;;;8.53;6.60;;;16.40;99.90;;;;;;5115815;27;20465;-76
2023/05/11 05:35:05;;;;;;;7.10;6.50;;;16.40;99.90;;;;;;5114921;27;20496;-76
2023/05/11 05:37:32;;;;;;;5.70;5.30;;;16.50;99.90;;;;;;5115959;27;20957;-76
2023/05/11 05:39:59;;;;;;;7.23;6.20;;;16.60;99.90;;;;;;5115206;27;20460;-76
2023/05/11 05:42:26;;;;;;;7.70;6.90;;;16.60;99.90;;;;;;5115414;27;20552;-77
2023/05/11 05:44:54;;;;;;;8.10;7.30;;;16.70;99.90;;;;;;5115008;27;20472;-76
2023/05/11 05:47:21;;;;;;;7.80;7.10;;;16.80;99.90;;;;;;5115616;27;20468;-76
2023/05/11 05:49:48;;;;;;;6.83;6.23;;;16.80;99.90;;;;;;5115545;27;20529;-76
2023/05/11 05:52:16;;;;;;;6.77;6.17;;;16.80;99.90;;;;;;5129951;27;20478;-76
2023/05/11 05:54:43;;;;;;;7.83;7.03;;;16.80;99.90;;;;;;5125607;27;20476;-76
2023/05/11 05:57:10;;;;;;;9.20;6.80;;;16.80;99.90;;;;;;5116084;27;20496;-77
2023/05/11 05:59:37;;;;;;;7.53;6.83;;;16.90;99.90;;;;;;5108756;27;20802;-76
2023/05/11 06:02:06;;;;;;;10.43;6.20;;;17.00;99.90;;;;;;5115863;27;20517;-76
2023/05/11 06:04:33;;;;;;;6.00;5.60;;;17.00;99.90;;;;;;5116172;27;20472;-76
2023/05/11 06:07:00;;;;;;;6.10;5.60;;;17.10;99.90;;;;;;5115404;27;20499;-76
2023/05/11 06:09:27;;;;;;;6.63;6.03;;;17.20;99.90;;;;;;5116412;27;20464;-76
2023/05/11 06:11:58;;;;;;;7.07;6.47;;;17.30;99.90;;;;;;5115611;27;20465;-75
2023/05/11 06:14:25;;;;;;;7.50;5.57;;;17.40;99.90;;;;;;5115632;27;20457;-75
2023/05/11 06:16:52;;;;;;;8.13;6.60;;;17.50;99.90;;;;;;5116430;27;20969;-75
2023/05/11 06:19:21;;;;;;;8.50;5.73;;;17.60;99.90;;;;;;5115545;27;20492;-76
2023/05/11 06:21:48;;;;;;;6.30;5.80;;;17.60;99.90;;;;;;5115888;27;20461;-76
2023/05/11 06:24:15;;;;;;;8.73;5.93;;;17.70;99.90;;;;;;5114971;27;20532;-75
2023/05/11 06:26:54;;;;;;;;;;;;;;;;;;;;;
2023/05/11 06:29:21;;;;;;;7.80;6.73;;;17.80;99.90;;;;;;5106785;27;20949;-76
2023/05/11 06:31:51;;;;;;;6.00;5.40;;;17.90;99.90;;;;;;5115516;27;20522;-75
2023/05/11 06:34:21;;;;;;;7.23;5.63;;;18.00;99.90;;;;;;5116795;27;20463;-76
2023/05/11 06:36:49;;;;;;;5.80;5.40;;;18.10;99.90;;;;;;5115496;27;20499;-77
2023/05/11 06:39:16;;;;;;;5.83;5.23;;;18.10;99.90;;;;;;5116002;27;20457;-75
2023/05/11 06:41:43;;;;;;;5.67;4.57;;;18.30;99.90;;;;;;5115298;27;20464;-76
2023/05/11 06:44:11;;;;;;;10.73;5.40;;;18.40;99.90;;;;;;5115805;27;20683;-77
2023/05/11 06:46:43;;;;;;;5.33;4.93;;;18.60;99.90;;;;;;5116675;27;20503;-76
2023/05/11 06:49:10;;;;;;;5.80;5.20;;;18.80;99.90;;;;;;5115563;27;20460;-77
2023/05/11 06:51:39;;;;;;;8.80;5.90;;;18.90;99.90;;;;;;5115371;27;20468;-77
2023/05/11 06:54:06;;;;;;;9.40;5.50;;;19.00;99.90;;;;;;5115387;27;20469;-76
2023/05/11 06:56:33;;;;;;;6.90;4.70;;;19.10;99.90;;;;;;5114535;27;20978;-76
2023/05/11 06:59:00;;;;;;;6.10;5.43;;;19.20;99.90;;;;;;5114566;27;20460;-76
2023/05/11 07:01:27;;;;;;;7.93;4.83;;;19.40;99.90;;;;;;5115002;27;20457;-76
2023/05/11 07:03:55;;;;;;;8.60;5.07;;;19.50;99.90;;;;;;5114122;27;20778;-76
2023/05/11 07:06:22;;;;;;;5.20;4.80;;;19.50;99.90;;;;;;5114497;27;20537;-76
2023/05/11 07:08:50;;;;;;;5.30;4.53;;;19.70;99.90;;;;;;5114266;27;20973;-77
2023/05/11 07:11:17;;;;;;;5.77;5.27;;;19.70;99.30;;;;;;5113551;27;20547;-76
2023/05/11 07:13:45;;;;;;;8.13;5.07;;;19.80;99.20;;;;;;5114671;27;20469;-76
2023/05/11 07:16:11;;;;;;;4.67;4.27;;;19.90;98.80;;;;;;5113498;27;20449;-77
2023/05/11 07:18:38;;;;;;;8.53;5.00;;;20.00;98.70;;;;;;5114186;27;20472;-76
2023/05/11 07:21:05;;;;;;;5.03;4.53;;;20.10;97.90;;;;;;5113977;27;20464;-76
2023/05/11 07:23:32;;;;;;;4.33;4.03;;;20.20;97.40;;;;;;5115656;27;20521;-75
2023/05/11 07:26:07;;;;;;;5.47;4.33;;;20.50;97.50;;;;;;5134904;27;20494;-75
2023/05/11 07:28:34;;;;;;;5.00;4.67;;;20.60;96.50;;;;;;5114189;27;20459;-76
2023/05/11 07:31:04;;;;;;;5.40;4.90;;;20.80;95.90;;;;;;5113792;27;20468;-76
2023/05/11 07:33:32;;;;;;;4.50;4.03;;;21.00;95.50;;;;;;5114173;27;20528;-76
2023/05/11 07:35:59;;;;;;;4.97;4.47;;;21.20;95.00;;;;;;5113437;27;20492;-76
2023/05/11 07:38:26;;;;;;;6.37;3.87;;;21.40;94.80;;;;;;5114053;27;20463;-75
2023/05/11 07:40:53;;;;;;;5.57;4.20;;;21.60;94.50;;;;;;5113868;27;20471;-75
2023/05/11 07:43:21;;;;;;;4.37;4.00;;;21.60;93.60;;;;;;5112803;27;20484;-76
2023/05/11 07:45:48;;;;;;;4.87;4.10;;;21.80;93.10;;;;;;5113349;27;20611;-76
2023/05/11 07:48:15;;;;;;;3.90;3.60;;;21.90;92.80;;;;;;5112854;27;20476;-76
2023/05/11 07:50:42;;;;;;;4.40;4.00;;;21.90;92.90;;;;;;5113444;27;20465;-76
2023/05/11 07:53:09;;;;;;;4.63;4.23;;;22.10;93.00;;;;;;5112971;27;20479;-75
2023/05/11 07:55:36;;;;;;;4.33;3.93;;;22.10;91.30;;;;;;5112892;27;20465;-75
2023/05/11 07:58:04;;;;;;;5.10;4.30;;;22.10;91.30;;;;;;5112602;27;20464;-76
2023/05/11 08:00:34;;;;;;;3.80;3.33;;;22.20;90.80;;;;;;5112970;27;20535;-77
2023/05/11 08:03:02;;;;;;;3.30;3.03;;;22.20;90.30;;;;;;5112301;27;20464;-76
2023/05/11 08:05:36;;;;;;;4.03;3.57;;;22.40;90.10;;;;;;5113120;27;20529;-76
2023/05/11 08:08:04;;;;;;;4.20;3.37;;;22.40;89.00;;;;;;5112417;27;20474;-75
2023/05/11 08:10:32;;;;;;;6.87;5.47;;;22.40;88.90;;;;;;5112747;27;20467;-74
2023/05/11 08:13:02;;;;;;;4.40;4.10;;;22.50;89.40;;;;;;5112903;27;20469;-76
2023/05/11 08:15:30;;;;;;;4.67;4.20;;;22.60;89.30;;;;;;5112708;27;20472;-75
2023/05/11 08:17:59;;;;;;;5.40;4.00;;;22.70;90.10;;;;;;5112854;27;20540;-75
2023/05/11 08:20:26;;;;;;;3.73;3.53;;;22.70;88.30;;;;;;5112607;27;20460;-76
2023/05/11 08:23:00;;;;;;;5.70;4.47;;;22.80;88.40;;;;;;5113132;27;20985;-76
2023/05/11 08:25:27;;;;;;;4.30;4.00;;;22.90;88.10;;;;;;5103539;27;20499;-76
2023/05/11 08:27:54;;;;;;;4.33;3.83;;;23.00;86.90;;;;;;5113036;27;20472;-76
2023/05/11 08:30:21;;;;;;;5.00;4.10;;;22.80;84.40;;;;;;5112622;27;20464;-76
2023/05/11 08:32:48;;;;;;;4.37;4.00;;;22.90;84.70;;;;;;5112794;27;20483;-77
2023/05/11 08:35:17;;;;;;;4.93;3.63;;;22.80;84.10;;;;;;5275277;22;20462;-76
2023/05/11 08:37:44;;;;;;;4.67;3.33;;;22.80;83.40;;;;;;5092410;28;20461;-76
2023/05/11 08:40:12;;;;;;;7.20;3.03;;;22.70;83.10;;;;;;5091951;28;20470;-76
2023/05/11 08:42:43;;;;;;;6.30;3.00;;;22.70;83.20;;;;;;5092957;28;20473;-77
2023/05/11 08:45:11;;;;;;;3.57;3.37;;;22.60;83.40;;;;;;5091928;28;20493;-77
2023/05/11 08:47:39;;;;;;;4.17;3.30;;;22.60;83.30;;;;;;5092653;28;20851;-76
2023/05/11 08:50:07;;;;;;;3.60;3.20;;;22.60;82.60;;;;;;5097649;28;20469;-76
2023/05/11 08:52:56;;;;;;;5.10;3.60;;;22.50;82.60;;;;;;5091539;28;20602;-76
2023/05/11 08:55:26;;;;;;;6.33;3.83;;;22.50;82.50;;;;;;5088331;28;20484;-76
2023/05/11 08:57:56;;;;;;;4.97;3.47;;;22.40;81.90;;;;;;5096499;28;20475;-76
2023/05/11 09:00:23;;;;;;;4.20;3.90;;;22.30;81.90;;;;;;5095578;28;20471;-77
2023/05/11 09:02:52;;;;;;;7.87;3.27;;;22.30;82.10;;;;;;5063792;28;20477;-76
2023/05/11 09:05:20;;;;;;;3.83;3.53;;;22.30;81.70;;;;;;5095709;28;20544;-76
2023/05/11 09:07:54;;;;;;;5.90;3.20;;;22.30;82.10;;;;;;5096281;28;20495;-77
2023/05/11 09:10:26;;;;;;;4.10;3.47;;;22.30;81.70;;;;;;5095934;28;20468;-76
2023/05/11 09:12:53;;;;;;;5.80;3.87;;;22.20;81.90;;;;;;5087300;28;20553;-75
2023/05/11 09:15:20;;;;;;;3.37;3.10;;;22.20;81.00;;;;;;5095277;28;20486;-76
2023/05/11 09:17:47;;;;;;;4.17;3.00;;;22.20;80.60;;;;;;5096212;28;21008;-75
2023/05/11 09:20:14;;;;;;;5.13;3.40;;;22.20;79.30;;;;;;5095573;28;20465;-76
2023/05/11 09:25:33;;;;;;;6.70;3.50;;;22.20;78.30;;;;;;5094664;28;21110;-75
2023/05/11 09:28:01;;;;;;;4.03;2.70;;;22.20;79.00;;;;;;5099677;28;20834;-75
2023/05/11 09:30:28;;;;;;;4.70;4.30;;;22.30;79.40;;;;;;5094870;28;20489;-76
2023/05/11 09:32:56;;;;;;;3.50;3.20;;;22.40;79.40;;;;;;5095526;28;20548;-76
2023/05/11 09:35:24;;;;;;;3.23;3.03;;;22.40;79.10;;;;;;5094839;28;20484;-76
2023/05/11 09:38:05;;;;;;;3.77;3.40;;;22.50;79.50;;;;;;5095526;28;20501;-75
2023/05/11 09:40:35;;;;;;;3.83;3.20;;;22.50;79.40;;;;;;5094868;27;20461;-76
2023/05/11 09:43:18;;;;;;;6.50;3.60;;;22.60;76.00;;;;;;5094995;28;20479;-78
2023/05/11 09:45:45;;;;;;;2.50;2.30;;;22.70;73.50;;;;;;5094980;28;20453;-77
2023/05/11 09:48:26;;;;;;;2.67;2.43;;;22.70;70.40;;;;;;5095291;28;20492;-77
2023/05/11 09:51:00;;;;;;;3.23;3.00;;;22.70;70.50;;;;;;5094942;28;20814;-76
2023/05/11 09:56:20;;;;;;;2.70;2.50;;;22.80;70.30;;;;;;5094710;28;20492;-76
2023/05/11 09:58:50;;;;;;;4.30;2.53;;;22.70;70.60;;;;;;5095542;28;20531;-76
2023/05/11 10:01:19;;;;;;;2.63;2.43;;;22.70;70.40;;;;;;5095029;28;20530;-76
2023/05/11 10:03:50;;;;;;;5.17;3.30;;;22.70;70.60;;;;;;5094957;28;20565;-76
2023/05/11 10:06:18;;;;;;;3.40;3.10;;;22.80;70.10;;;;;;5093105;28;20609;-76
2023/05/11 10:08:47;;;;;;;4.17;2.73;;;22.80;70.10;;;;;;5094772;28;20454;-76
2023/05/11 10:11:15;;;;;;;3.30;2.93;;;22.80;69.40;;;;;;5094508;28;20465;-76
2023/05/11 10:13:46;;;;;;;3.10;2.80;;;22.90;69.40;;;;;;5094895;28;20539;-76
2023/05/11 10:16:17;;;;;;;3.27;3.07;;;22.90;69.80;;;;;;5093210;28;20944;-76
2023/05/11 10:18:46;;;;;;;3.40;3.10;;;22.90;70.00;;;;;;5094864;28;20473;-76
2023/05/11 10:21:16;;;;;;;3.90;2.67;;;23.00;70.60;;;;;;5094056;28;20576;-76
2023/05/11 10:23:44;;;;;;;3.23;2.93;;;23.00;70.10;;;;;;5093514;28;20502;-76
2023/05/11 10:26:11;;;;;;;3.83;3.53;;;23.10;69.50;;;;;;5093974;28;20477;-74
2023/05/11 10:28:39;;;;;;;5.67;3.30;;;23.00;68.90;;;;;;5093854;28;20457;-77
2023/05/11 10:31:09;;;;;;;3.97;3.10;;;23.00;68.20;;;;;;5094212;28;20526;-77
2023/05/11 10:33:36;;;;;;;5.50;4.57;;;23.00;68.20;;;;;;5093799;28;20464;-77
2023/05/11 10:36:04;;;;;;;3.37;3.07;;;23.00;67.60;;;;;;5093635;28;20462;-76
2023/05/11 10:38:31;;;;;;;3.80;2.80;;;23.10;67.70;;;;;;5093522;28;20530;-76
2023/05/11 10:41:13;;;;;;;3.20;3.00;;;23.10;68.20;;;;;;5094384;28;20461;-75
2023/05/11 10:44:03;;;;;;;6.37;3.63;;;23.20;67.90;;;;;;5093437;28;20495;-75
2023/05/11 10:46:46;;;;;;;5.37;3.47;;;23.30;66.80;;;;;;5093431;28;20475;-75
2023/05/11 10:49:43;;;;;;;3.73;2.60;;;23.50;66.70;;;;;;5094223;28;20465;-76
2023/05/11 10:52:34;;;;;;;4.13;3.10;;;23.50;65.90;;;;;;5093956;28;20463;-76
2023/05/11 10:55:10;;;;;;;2.50;2.30;;;23.50;66.30;;;;;;5093340;28;20550;-75
2023/05/11 10:58:06;;;;;;;3.27;2.97;;;23.30;65.80;;;;;;5093960;28;20799;-76
2023/05/11 11:01:12;;;;;;;2.70;2.53;;;23.20;66.10;;;;;;5094125;28;20495;-75
2023/05/11 11:03:42;;;;;;;2.50;2.30;;;23.10;66.30;;;;;;5093574;28;20537;-76
2023/05/11 11:06:23;;;;;;;4.67;2.90;;;23.00;66.00;;;;;;5093916;28;20473;-76
2023/05/11 11:08:58;;;;;;;3.97;3.30;;;22.90;66.60;;;;;;5093461;28;20752;-75
2023/05/11 11:11:33;;;;;;;7.00;3.90;;;22.90;66.70;;;;;;5093159;28;20461;-76
2023/05/11 11:14:04;;;;;;;3.60;3.30;;;22.90;66.30;;;;;;5093447;28;20453;-75
2023/05/11 11:16:31;;;;;;;3.93;2.83;;;22.90;66.20;;;;;;5093250;28;20472;-75
2023/05/11 11:19:38;;;;;;;8.60;3.90;;;22.90;65.60;;;;;;5093330;28;20465;-74
2023/05/11 11:22:06;;;;;;;2.70;2.50;;;22.80;65.20;;;;;;5092792;28;20544;-75
2023/05/11 11:24:46;;;;;;;2.83;2.40;;;22.70;65.00;;;;;;5093729;28;20468;-76
2023/05/11 11:27:16;;;;;;;3.00;2.67;;;22.70;64.70;;;;;;5093348;28;20481;-76
2023/05/11 11:30:16;;;;;;;4.50;3.20;;;22.70;64.20;;;;;;5084624;28;20516;-76
2023/05/11 11:32:46;;;;;;;2.90;2.40;;;22.80;63.60;;;;;;5092563;28;20493;-75
2023/05/11 11:35:48;;;;;;;2.77;2.53;;;22.70;64.90;;;;;;5093096;28;20794;-74
2023/05/11 11:38:20;;;;;;;2.80;2.60;;;22.80;65.30;;;;;;5093600;28;20491;-75
2023/05/11 11:40:51;;;;;;;3.23;2.70;;;22.80;65.10;;;;;;5092903;28;20457;-76
2023/05/11 11:43:20;;;;;;;3.90;3.10;;;22.80;65.60;;;;;;5092739;28;20827;-77
2023/05/11 11:45:54;;;;;;;4.50;2.70;;;22.80;65.30;;;;;;5093192;28;20488;-77
2023/05/11 11:48:23;;;;;;;3.90;2.60;;;22.80;65.00;;;;;;5092978;28;20528;-77
2023/05/11 11:51:02;;;;;;;5.10;2.77;;;22.90;65.10;;;;;;5093181;28;20489;-76
2023/05/11 11:53:58;;;;;;;3.20;2.83;;;22.80;66.10;;;;;;5092740;28;20939;-76
2023/05/11 11:56:40;;;;;;;4.30;3.50;;;22.60;66.50;;;;;;5092365;28;20865;-75
2023/05/11 11:59:09;;;;;;;4.40;3.20;;;22.60;67.50;;;;;;5093198;28;20461;-76
2023/05/11 12:01:38;;;;;;;3.80;3.03;;;22.60;68.30;;;;;;5092902;28;20929;-76
2023/05/11 12:04:30;;;;;;;3.27;2.63;;;22.60;68.90;;;;;;5093237;28;20857;-76
2023/05/11 12:06:59;;;;;;;6.20;3.00;;;22.50;68.40;;;;;;5092907;28;20468;-77
2023/05/11 12:09:27;;;;;;;5.57;2.73;;;22.50;68.00;;;;;;5092776;28;20530;-76
2023/05/11 12:11:57;;;;;;;6.63;2.80;;;22.60;67.50;;;;;;5092855;28;20469;-77
2023/05/11 12:14:27;;;;;;;2.80;2.43;;;22.50;66.50;;;;;;5092612;28;20485;-77
2023/05/11 12:17:02;;;;;;;5.37;2.50;;;22.40;64.60;;;;;;5092528;28;20465;-77
2023/05/11 12:19:31;;;;;;;3.57;3.27;;;22.40;63.90;;;;;;5092423;28;21631;-77
2023/05/11 12:21:59;;;;;;;3.33;3.00;;;22.40;63.90;;;;;;5092806;28;20518;-76
2023/05/11 12:24:26;;;;;;;4.97;2.90;;;22.40;63.30;;;;;;5092270;28;20491;-77
2023/05/11 12:26:57;;;;;;;4.40;3.00;;;22.40;63.30;;;;;;5096442;28;20465;-76
2023/05/11 12:29:28;;;;;;;2.40;2.10;;;22.40;62.50;;;;;;5093228;28;20469;-76
2023/05/11 12:31:55;;;;;;;3.60;2.53;;;22.40;61.90;;;;;;5096925;27;20480;-77
2023/05/11 12:34:23;;;;;;;5.23;2.10;;;22.40;62.10;;;;;;5096209;28;20484;-76
2023/05/11 12:36:53;;;;;;;4.83;2.17;;;22.40;61.30;;;;;;5096569;28;20465;-76
2023/05/11 12:39:24;;;;;;;4.60;3.10;;;22.60;61.00;;;;;;5096077;28;20974;-76
2023/05/11 12:41:53;;;;;;;5.27;2.80;;;22.60;60.20;;;;;;5095937;28;20784;-76
2023/05/11 12:44:24;;;;;;;3.10;2.40;;;22.60;60.20;;;;;;5096098;28;20465;-76
2023/05/11 12:46:52;;;;;;;4.10;2.63;;;22.60;59.90;;;;;;5096545;28;20457;-75
2023/05/11 12:49:20;;;;;;;6.20;2.97;;;22.60;60.40;;;;;;5096242;28;20521;-76
2023/05/11 12:51:49;;;;;;;2.70;2.50;;;22.60;60.80;;;;;;5096642;28;20461;-76
2023/05/11 12:54:28;;;;;;;4.10;2.80;;;22.60;60.60;;;;;;5096023;28;20470;-76
2023/05/11 12:57:04;;;;;;;4.37;2.90;;;22.70;60.90;;;;;;5091699;28;21378;-77
2023/05/11 12:59:34;;;;;;;5.37;2.73;;;22.70;60.50;;;;;;5104538;28;20788;-76
2023/05/11 13:02:22;;;;;;;3.17;2.87;;;22.60;60.90;;;;;;5096113;28;20465;-75
2023/05/11 13:04:53;;;;;;;3.40;2.40;;;22.70;61.40;;;;;;5096469;28;20465;-76